Time;durP1;ratioP1;P1;durP2;ratioP2;P2;SDS_P1;SDS_P2;PMS_P1;PMS_P2;Temp;Humidity;BMP_temperature;BMP_pressure;BME280_temperature;BME280_humidity;BME280_pressure;Samples;Min_cycle;Max_cycle;Signal;HPM_P1;HPM_P2
2023/03/20 00:01:49;;;;;;;52.20;21.63;;;9.00;99.90;;;;;;5038233;28;20191;-49
2023/03/20 00:04:16;;;;;;;41.70;22.07;;;9.00;99.90;;;;;;5062692;28;20195;-50
2023/03/20 00:06:44;;;;;;;45.07;20.70;;;9.10;99.90;;;;;;5055017;28;20998;-53
2023/03/20 00:09:12;;;;;;;44.27;21.93;;;9.10;99.90;;;;;;5036653;28;20223;-54
2023/03/20 00:11:43;;;;;;;40.27;21.73;;;9.10;99.90;;;;;;5046688;28;20278;-56
2023/03/20 00:14:13;;;;;;;49.33;22.77;;;9.10;99.90;;;;;;5047710;28;20213;-53
2023/03/20 00:16:42;;;;;;;46.73;21.63;;;9.10;99.90;;;;;;5043111;28;20215;-54
2023/03/20 00:19:32;;;;;;;46.20;21.73;;;9.10;99.90;;;;;;5049082;28;20209;-53
2023/03/20 00:22:03;;;;;;;49.90;22.27;;;9.10;99.90;;;;;;5039874;28;20199;-54
2023/03/20 00:24:30;;;;;;;48.27;21.93;;;9.10;99.90;;;;;;5034522;28;20238;-48
2023/03/20 00:26:57;;;;;;;45.07;22.33;;;9.10;99.90;;;;;;5048445;28;20215;-54
2023/03/20 00:29:25;;;;;;;49.73;22.37;;;9.10;99.90;;;;;;5042773;28;20198;-54
2023/03/20 00:31:53;;;;;;;52.50;23.00;;;9.10;99.90;;;;;;5048071;28;20240;-51
2023/03/20 00:34:24;;;;;;;48.43;21.37;;;9.10;99.90;;;;;;5042353;28;20282;-49
2023/03/20 00:36:53;;;;;;;53.93;22.53;;;9.10;99.90;;;;;;5042302;28;20225;-52
2023/03/20 00:39:23;;;;;;;45.90;21.63;;;9.10;99.90;;;;;;5037614;28;20365;-48
2023/03/20 00:41:53;;;;;;;47.03;21.53;;;9.10;99.90;;;;;;5053634;28;20195;-51
2023/03/20 00:44:23;;;;;;;52.13;23.97;;;9.00;99.90;;;;;;5038275;28;20285;-50
2023/03/20 00:46:53;;;;;;;52.73;22.73;;;9.10;99.90;;;;;;5047599;28;20766;-49
2023/03/20 00:49:24;;;;;;;48.73;22.53;;;9.10;99.90;;;;;;5037185;28;20202;-53
2023/03/20 00:51:53;;;;;;;51.63;24.07;;;9.00;99.90;;;;;;5052243;28;20205;-49
2023/03/20 00:54:20;;;;;;;59.53;23.47;;;9.10;99.90;;;;;;5026392;28;21952;-49
2023/03/20 00:56:54;;;;;;;52.40;22.27;;;9.10;99.90;;;;;;5051988;28;20250;-50
2023/03/20 00:59:24;;;;;;;48.60;22.00;;;9.10;99.90;;;;;;5044092;28;20202;-51
2023/03/20 01:01:51;;;;;;;53.07;23.53;;;9.10;99.90;;;;;;5045456;28;20203;-51
2023/03/20 01:04:20;;;;;;;47.03;22.83;;;9.10;99.90;;;;;;5049475;28;20199;-49
2023/03/20 01:06:48;;;;;;;48.40;22.53;;;9.10;99.90;;;;;;5043493;28;20219;-49
2023/03/20 01:09:16;;;;;;;46.60;22.47;;;9.10;99.90;;;;;;5025841;28;20210;-57
2023/03/20 01:11:45;;;;;;;49.43;22.67;;;9.10;99.90;;;;;;5056955;28;20199;-52
2023/03/20 01:14:14;;;;;;;50.43;22.80;;;9.10;99.90;;;;;;5044372;28;20200;-55
2023/03/20 01:16:42;;;;;;;52.03;24.07;;;9.10;99.90;;;;;;5042739;28;20222;-51
2023/03/20 01:19:12;;;;;;;48.60;22.93;;;9.10;99.90;;;;;;5038279;28;20207;-55
2023/03/20 01:21:39;;;;;;;52.30;23.63;;;9.10;99.90;;;;;;5046840;28;20698;-49
2023/03/20 01:24:06;;;;;;;45.57;21.97;;;9.10;99.90;;;;;;5041785;28;20214;-54
2023/03/20 01:26:37;;;;;;;48.80;22.30;;;9.10;99.90;;;;;;5035536;28;20297;-52
2023/03/20 01:29:16;;;;;;;58.50;23.67;;;9.10;99.90;;;;;;5042821;28;20199;-54
2023/03/20 01:31:43;;;;;;;50.53;23.57;;;9.10;99.90;;;;;;5054036;28;20322;-49
2023/03/20 01:34:10;;;;;;;50.67;23.50;;;9.10;99.90;;;;;;5048637;28;20288;-55
2023/03/20 01:36:38;;;;;;;44.87;22.37;;;9.10;99.90;;;;;;5039587;28;20231;-49
2023/03/20 01:39:06;;;;;;;35.53;17.47;;;9.10;99.90;;;;;;5054908;28;20205;-52
2023/03/20 01:41:35;;;;;;;32.90;16.90;;;9.00;99.90;;;;;;5035494;28;20206;-50
2023/03/20 01:44:17;;;;;;;32.37;16.83;;;8.80;99.90;;;;;;5052003;28;20233;-54
2023/03/20 01:46:45;;;;;;;34.30;16.30;;;8.60;99.90;;;;;;5051491;28;20222;-49
2023/03/20 01:49:55;;;;;;;32.67;14.87;;;8.50;99.90;;;;;;5036371;28;20882;-50
2023/03/20 01:52:22;;;;;;;25.57;14.67;;;8.40;99.90;;;;;;5052478;28;20186;-52
2023/03/20 01:54:49;;;;;;;26.43;14.57;;;8.30;99.90;;;;;;5055753;28;20200;-48
2023/03/20 01:57:20;;;;;;;30.07;14.53;;;8.10;99.90;;;;;;5028321;28;20236;-51
2023/03/20 01:59:55;;;;;;;34.37;16.37;;;8.10;99.90;;;;;;5052178;28;20612;-49
2023/03/20 02:02:26;;;;;;;31.77;15.37;;;8.00;99.90;;;;;;5042799;28;20207;-53
2023/03/20 02:04:57;;;;;;;32.93;16.93;;;8.00;99.90;;;;;;5053559;28;20207;-51
2023/03/20 02:07:25;;;;;;;34.43;16.10;;;8.00;99.90;;;;;;5053000;28;20301;-48
2023/03/20 02:10:00;;;;;;;29.53;15.80;;;7.90;99.90;;;;;;5055401;28;20205;-49
2023/03/20 02:12:40;;;;;;;30.13;16.13;;;7.90;99.90;;;;;;5054350;28;20201;-50
2023/03/20 02:15:09;;;;;;;33.83;15.80;;;7.90;99.90;;;;;;5039344;28;20241;-52
2023/03/20 02:17:49;;;;;;;34.73;16.13;;;8.00;99.90;;;;;;5050349;28;20203;-49
2023/03/20 02:20:27;;;;;;;30.47;15.73;;;7.90;99.90;;;;;;5044038;28;20214;-49
2023/03/20 02:23:23;;;;;;;26.50;14.33;;;7.90;99.90;;;;;;5050564;28;20199;-51
2023/03/20 02:26:24;;;;;;;33.80;15.37;;;8.00;99.90;;;;;;5048768;28;20730;-48
2023/03/20 02:29:27;;;;;;;27.60;14.07;;;8.00;99.90;;;;;;5051331;28;20206;-50
2023/03/20 02:32:23;;;;;;;25.90;13.83;;;8.00;99.90;;;;;;5056589;28;20202;-51
2023/03/20 02:35:30;;;;;;;24.47;12.93;;;7.90;99.90;;;;;;5047811;28;20233;-48
2023/03/20 02:38:45;;;;;;;26.57;13.37;;;7.90;99.90;;;;;;5055711;28;20289;-51
2023/03/20 02:41:20;;;;;;;18.33;9.73;;;7.90;99.90;;;;;;5039732;28;20322;-54
2023/03/20 02:43:56;;;;;;;19.47;11.03;;;7.90;99.90;;;;;;5044100;28;20860;-51
2023/03/20 02:46:35;;;;;;;20.87;10.90;;;7.80;99.90;;;;;;5034444;28;20336;-52
2023/03/20 02:49:16;;;;;;;18.20;9.70;;;7.80;99.90;;;;;;5046521;28;20203;-56
2023/03/20 02:51:53;;;;;;;17.47;9.23;;;7.70;99.90;;;;;;5043855;28;20206;-53
2023/03/20 02:54:53;;;;;;;17.20;8.50;;;7.70;99.90;;;;;;5062555;28;20213;-54
2023/03/20 02:57:33;;;;;;;17.33;8.07;;;7.70;99.90;;;;;;5045493;28;20221;-55
2023/03/20 03:00:08;;;;;;;13.57;7.40;;;7.70;99.90;;;;;;5037990;28;20626;-57
2023/03/20 03:02:41;;;;;;;13.23;7.23;;;7.70;99.90;;;;;;5045583;28;20230;-54
2023/03/20 03:05:15;;;;;;;11.63;6.40;;;7.70;99.90;;;;;;5045692;28;20276;-57
2023/03/20 03:07:45;;;;;;;12.63;6.80;;;7.70;99.90;;;;;;5043117;28;20203;-56
2023/03/20 03:10:18;;;;;;;13.33;6.17;;;7.70;99.90;;;;;;5044141;28;20203;-57
2023/03/20 03:12:49;;;;;;;9.60;5.57;;;7.70;99.90;;;;;;5046193;28;20203;-53
2023/03/20 03:15:20;;;;;;;10.63;5.33;;;7.70;99.90;;;;;;5050082;28;20191;-51
2023/03/20 03:17:49;;;;;;;7.77;4.77;;;7.60;99.90;;;;;;5038519;28;20237;-49
2023/03/20 03:20:23;;;;;;;8.73;5.00;;;7.60;99.90;;;;;;5043507;28;21709;-49
2023/03/20 03:22:50;;;;;;;8.13;5.20;;;7.70;99.90;;;;;;5048627;28;20552;-55
2023/03/20 03:25:22;;;;;;;7.50;5.43;;;7.60;99.90;;;;;;5045773;28;20191;-48
2023/03/20 03:28:01;;;;;;;10.07;5.20;;;7.60;99.90;;;;;;5054510;28;20202;-45
2023/03/20 03:30:32;;;;;;;8.37;5.27;;;7.60;99.90;;;;;;5042290;28;20303;-45
2023/03/20 03:33:12;;;;;;;8.90;5.90;;;7.60;99.90;;;;;;5032261;28;20308;-52
2023/03/20 03:35:40;;;;;;;7.30;4.93;;;7.50;99.90;;;;;;5060333;28;20219;-47
2023/03/20 03:38:24;;;;;;;7.40;4.70;;;7.50;99.90;;;;;;5042280;28;20202;-49
2023/03/20 03:41:06;;;;;;;9.17;5.17;;;7.50;99.90;;;;;;5055985;28;20204;-46
2023/03/20 03:43:39;;;;;;;8.30;5.23;;;7.50;99.90;;;;;;5042883;28;20218;-45
2023/03/20 03:46:11;;;;;;;9.13;5.50;;;7.50;99.90;;;;;;5042279;28;20219;-49
2023/03/20 03:48:43;;;;;;;8.70;5.20;;;7.50;99.90;;;;;;5037417;28;20721;-50
2023/03/20 03:51:14;;;;;;;6.80;5.23;;;7.50;99.90;;;;;;5043268;28;20218;-47
2023/03/20 03:53:59;;;;;;;6.50;4.47;;;7.60;99.90;;;;;;5053646;28;20220;-47
2023/03/20 03:56:31;;;;;;;6.93;4.70;;;7.50;99.90;;;;;;5054503;28;20229;-47
2023/03/20 03:59:02;;;;;;;7.13;4.50;;;7.60;99.90;;;;;;5055433;28;20206;-46
2023/03/20 04:01:34;;;;;;;6.07;4.97;;;7.60;99.90;;;;;;5041369;28;20203;-46
2023/03/20 04:04:06;;;;;;;7.50;4.57;;;7.60;99.90;;;;;;5042551;28;20221;-46
2023/03/20 04:06:33;;;;;;;7.77;4.97;;;7.60;99.90;;;;;;5046756;28;20215;-45
2023/03/20 04:09:00;;;;;;;8.47;4.97;;;7.50;99.90;;;;;;5042506;28;20720;-45
2023/03/20 04:11:29;;;;;;;5.07;4.20;;;7.50;99.90;;;;;;5042803;28;20310;-46
2023/03/20 04:13:56;;;;;;;5.90;4.07;;;7.50;99.90;;;;;;5049840;28;20574;-46
2023/03/20 04:16:25;;;;;;;6.30;4.23;;;7.50;99.90;;;;;;5036239;28;20315;-47
2023/03/20 04:18:52;;;;;;;5.30;3.93;;;7.50;99.90;;;;;;5035985;28;20210;-42
2023/03/20 04:21:20;;;;;;;5.40;4.03;;;7.50;99.90;;;;;;5046454;28;20265;-45
2023/03/20 04:23:48;;;;;;;5.63;4.17;;;7.50;99.90;;;;;;5043755;28;20207;-45
2023/03/20 04:26:15;;;;;;;7.10;4.30;;;7.50;99.90;;;;;;5038522;28;20210;-45
2023/03/20 04:28:43;;;;;;;5.40;3.73;;;7.50;99.90;;;;;;5051419;28;20203;-46
2023/03/20 04:31:42;;;;;;;5.03;3.90;;;7.50;99.90;;;;;;5040664;28;20654;-46
2023/03/20 04:34:22;;;;;;;5.60;3.80;;;7.50;99.90;;;;;;5030148;28;20746;-47
2023/03/20 04:37:19;;;;;;;4.80;3.23;;;7.50;99.90;;;;;;5047279;28;20223;-47
2023/03/20 04:39:57;;;;;;;5.07;3.70;;;7.60;99.90;;;;;;5048274;28;20221;-45
2023/03/20 04:42:24;;;;;;;4.60;3.40;;;7.50;99.90;;;;;;5041958;28;20218;-46
2023/03/20 04:44:58;;;;;;;4.80;3.43;;;7.50;99.90;;;;;;5050455;28;20210;-48
2023/03/20 04:47:25;;;;;;;4.70;3.67;;;7.50;99.90;;;;;;5045179;28;20210;-48
2023/03/20 04:49:52;;;;;;;5.67;3.93;;;7.60;99.90;;;;;;5039521;28;20209;-47
2023/03/20 04:52:20;;;;;;;7.67;3.80;;;7.60;99.90;;;;;;5044651;28;20917;-46
2023/03/20 04:54:47;;;;;;;4.67;3.87;;;7.60;99.90;;;;;;5047806;28;20620;-48
2023/03/20 04:57:15;;;;;;;6.57;4.80;;;7.60;99.90;;;;;;5040872;28;20225;-49
2023/03/20 04:59:41;;;;;;;5.90;4.77;;;7.60;99.90;;;;;;5056873;28;20929;-46
2023/03/20 05:02:13;;;;;;;7.50;4.70;;;7.60;99.90;;;;;;5049488;28;20840;-46
2023/03/20 05:04:41;;;;;;;8.80;5.67;;;7.60;99.90;;;;;;5061054;28;20237;-46
2023/03/20 05:07:09;;;;;;;9.50;4.87;;;7.60;99.90;;;;;;5031876;28;20285;-48
2023/03/20 05:09:48;;;;;;;9.00;6.10;;;7.60;99.90;;;;;;5044914;28;20222;-46
2023/03/20 05:12:17;;;;;;;7.53;5.73;;;7.60;99.90;;;;;;5044271;28;20331;-46
2023/03/20 05:15:05;;;;;;;8.43;5.30;;;7.60;99.90;;;;;;5044118;28;20268;-47
2023/03/20 05:18:00;;;;;;;6.17;4.13;;;7.50;99.90;;;;;;5039634;28;20238;-45
2023/03/20 05:20:37;;;;;;;5.40;4.57;;;7.50;99.90;;;;;;5060005;28;20195;-45
2023/03/20 05:23:10;;;;;;;6.97;4.83;;;7.50;99.90;;;;;;5031530;28;20284;-47
2023/03/20 05:25:49;;;;;;;5.47;4.27;;;7.50;99.90;;;;;;5051880;28;20258;-45
2023/03/20 05:28:24;;;;;;;5.77;4.20;;;7.50;99.90;;;;;;5041670;28;20202;-46
2023/03/20 05:31:10;;;;;;;6.90;4.13;;;7.50;99.90;;;;;;5054842;28;20210;-49
2023/03/20 05:33:58;;;;;;;8.80;4.40;;;7.50;99.90;;;;;;5052695;28;20279;-46
2023/03/20 05:36:36;;;;;;;6.27;4.00;;;7.50;99.90;;;;;;5037157;28;20222;-45
2023/03/20 05:39:23;;;;;;;6.03;3.77;;;7.50;99.90;;;;;;5052563;28;20202;-49
2023/03/20 05:42:06;;;;;;;5.30;3.83;;;7.50;99.90;;;;;;5040276;28;20202;-47
2023/03/20 05:44:46;;;;;;;4.83;3.90;;;7.50;99.90;;;;;;5050423;28;20313;-46
2023/03/20 05:47:22;;;;;;;7.30;4.50;;;7.50;99.90;;;;;;5045188;28;21393;-46
2023/03/20 05:50:22;;;;;;;5.87;4.17;;;7.50;99.90;;;;;;5046002;28;20285;-47
2023/03/20 05:53:05;;;;;;;5.20;3.90;;;7.50;99.90;;;;;;5046712;28;20715;-46
2023/03/20 05:55:44;;;;;;;6.60;4.67;;;7.50;99.90;;;;;;5050813;28;20226;-49
2023/03/20 05:58:46;;;;;;;5.10;4.43;;;7.50;99.90;;;;;;5047449;28;20206;-47
2023/03/20 06:01:32;;;;;;;8.23;4.73;;;7.50;99.90;;;;;;5043162;28;20400;-50
2023/03/20 06:04:20;;;;;;;4.97;4.40;;;7.50;99.90;;;;;;5044382;28;20667;-47
2023/03/20 06:07:07;;;;;;;6.60;5.23;;;7.50;99.90;;;;;;5047587;28;20249;-49
2023/03/20 06:09:36;;;;;;;8.03;5.20;;;7.50;99.90;;;;;;5037387;28;20325;-46
2023/03/20 06:12:07;;;;;;;6.33;4.67;;;7.40;99.90;;;;;;5045303;28;20222;-46
2023/03/20 06:14:35;;;;;;;7.00;5.20;;;7.50;99.90;;;;;;5039988;28;20211;-46
2023/03/20 06:17:06;;;;;;;9.23;6.27;;;7.50;99.90;;;;;;5048892;28;20226;-45
2023/03/20 06:19:34;;;;;;;9.13;5.70;;;7.50;99.90;;;;;;5044631;28;20717;-46
2023/03/20 06:22:02;;;;;;;10.67;6.33;;;7.50;99.90;;;;;;5051652;28;20195;-47
2023/03/20 06:24:32;;;;;;;8.60;6.20;;;7.50;99.90;;;;;;5037008;28;20325;-47
2023/03/20 06:26:59;;;;;;;9.37;6.57;;;7.50;99.90;;;;;;5043229;28;20221;-46
2023/03/20 06:29:27;;;;;;;9.30;6.23;;;7.50;99.90;;;;;;5050785;28;20194;-46
2023/03/20 06:31:59;;;;;;;10.33;6.37;;;7.50;99.90;;;;;;5051782;28;20284;-48
2023/03/20 06:34:30;;;;;;;9.73;6.70;;;7.50;99.90;;;;;;5043130;28;20360;-48
2023/03/20 06:36:57;;;;;;;8.40;6.33;;;7.50;99.90;;;;;;5050443;28;20696;-47
2023/03/20 06:39:48;;;;;;;9.47;6.17;;;7.50;99.90;;;;;;5031009;28;20250;-46
2023/03/20 06:42:19;;;;;;;10.30;7.13;;;7.50;99.90;;;;;;5049728;28;20207;-49
2023/03/20 06:44:47;;;;;;;15.00;6.77;;;7.50;99.90;;;;;;5036251;28;20195;-47
2023/03/20 06:47:23;;;;;;;9.87;6.87;;;7.50;99.90;;;;;;5059017;28;20246;-49
2023/03/20 06:49:51;;;;;;;9.90;6.83;;;7.50;99.90;;;;;;5045364;28;21072;-47
2023/03/20 06:52:21;;;;;;;11.13;6.90;;;7.60;99.90;;;;;;5051004;28;20199;-50
2023/03/20 06:55:09;;;;;;;10.47;7.73;;;7.60;99.90;;;;;;5032273;28;20218;-48
2023/03/20 06:57:36;;;;;;;10.30;6.93;;;7.60;99.90;;;;;;5045450;28;20223;-47
2023/03/20 07:00:04;;;;;;;13.77;7.73;;;7.60;99.90;;;;;;5058377;28;20728;-48
2023/03/20 07:02:32;;;;;;;12.23;7.43;;;7.60;99.90;;;;;;5041951;28;20199;-50
2023/03/20 07:04:59;;;;;;;11.80;7.33;;;7.60;99.90;;;;;;5054670;28;20203;-47
2023/03/20 07:07:28;;;;;;;14.30;8.27;;;7.60;99.90;;;;;;5032987;28;20207;-47
2023/03/20 07:09:54;;;;;;;11.97;7.23;;;7.60;99.90;;;;;;5053797;28;20222;-46
2023/03/20 07:12:27;;;;;;;14.73;8.03;;;7.60;99.90;;;;;;5025290;28;20257;-47
2023/03/20 07:14:59;;;;;;;11.47;7.70;;;7.60;99.90;;;;;;5047927;28;20244;-45
2023/03/20 07:17:27;;;;;;;12.07;7.77;;;7.70;99.90;;;;;;5038761;28;20234;-51
2023/03/20 07:19:54;;;;;;;9.70;7.00;;;7.70;99.90;;;;;;5050205;28;20213;-46
2023/03/20 07:22:23;;;;;;;10.60;8.13;;;7.70;99.90;;;;;;5043929;28;20222;-50
2023/03/20 07:24:51;;;;;;;13.70;7.70;;;7.70;99.90;;;;;;5051018;28;20673;-45
2023/03/20 07:27:20;;;;;;;11.53;8.03;;;7.70;99.90;;;;;;5034824;28;20766;-46
2023/03/20 07:29:49;;;;;;;8.57;6.20;;;7.80;99.90;;;;;;5043166;28;20215;-46
2023/03/20 07:32:19;;;;;;;11.93;7.00;;;7.80;99.90;;;;;;5039225;28;20199;-52
2023/03/20 07:34:49;;;;;;;8.10;6.40;;;7.80;99.90;;;;;;5049472;28;21753;-45
2023/03/20 07:37:17;;;;;;;8.57;6.43;;;7.80;99.90;;;;;;5038006;28;21245;-57
2023/03/20 07:39:55;;;;;;;9.03;6.57;;;7.90;99.90;;;;;;5046058;28;20752;-44
2023/03/20 07:42:41;;;;;;;7.87;5.93;;;7.90;99.90;;;;;;5040381;28;20308;-47
2023/03/20 07:45:15;;;;;;;8.97;5.50;;;7.90;99.90;;;;;;5037445;28;22700;-50
2023/03/20 07:47:47;;;;;;;12.37;6.20;;;7.90;99.90;;;;;;5042464;28;20199;-47
2023/03/20 07:50:14;;;;;;;8.20;6.00;;;7.90;99.90;;;;;;5043188;28;20187;-47
2023/03/20 07:52:46;;;;;;;15.03;9.20;;;8.00;99.90;;;;;;5046975;28;20227;-45
2023/03/20 07:55:13;;;;;;;16.23;9.67;;;8.00;99.90;;;;;;5036356;28;20289;-49
2023/03/20 07:57:39;;;;;;;8.93;6.20;;;8.00;99.90;;;;;;5034587;28;20223;-48
2023/03/20 08:00:10;;;;;;;6.90;5.20;;;8.10;99.90;;;;;;5035470;28;20230;-48
2023/03/20 08:02:41;;;;;;;7.87;5.67;;;8.10;99.90;;;;;;5045104;28;20807;-45
2023/03/20 08:05:09;;;;;;;11.47;6.10;;;8.20;99.90;;;;;;5039674;28;20280;-52
2023/03/20 08:07:36;;;;;;;8.40;5.60;;;8.20;99.90;;;;;;5040337;28;20945;-46
2023/03/20 08:10:03;;;;;;;6.77;5.13;;;8.10;99.90;;;;;;5038341;28;20214;-45
2023/03/20 08:12:30;;;;;;;8.90;5.97;;;8.20;99.90;;;;;;5045438;28;20199;-45
2023/03/20 08:14:56;;;;;;;8.40;5.20;;;8.20;99.90;;;;;;5032812;28;20211;-50
2023/03/20 08:17:24;;;;;;;7.03;5.17;;;8.30;99.90;;;;;;5044229;28;20306;-46
2023/03/20 08:19:52;;;;;;;10.40;5.70;;;8.30;99.90;;;;;;5043203;28;20273;-52
2023/03/20 08:22:18;;;;;;;6.90;5.07;;;8.30;99.90;;;;;;5054230;28;20550;-50
2023/03/20 08:24:46;;;;;;;6.97;4.87;;;8.30;99.90;;;;;;5040969;28;20207;-50
2023/03/20 08:27:12;;;;;;;8.30;5.87;;;8.30;99.90;;;;;;5039719;28;20238;-49
2023/03/20 08:29:39;;;;;;;8.57;5.67;;;8.40;99.90;;;;;;5034718;28;20191;-46
2023/03/20 08:32:06;;;;;;;8.40;5.80;;;8.40;99.90;;;;;;5047932;28;20214;-48
2023/03/20 08:34:33;;;;;;;7.23;4.73;;;8.40;99.90;;;;;;5042087;28;20201;-49
2023/03/20 08:37:03;;;;;;;10.00;4.93;;;8.40;99.90;;;;;;5042842;28;20213;-48
2023/03/20 08:39:31;;;;;;;7.30;4.67;;;8.40;99.90;;;;;;5043143;28;20206;-47
2023/03/20 08:41:58;;;;;;;7.83;5.33;;;8.50;99.90;;;;;;5038186;28;20203;-48
2023/03/20 08:44:25;;;;;;;6.13;4.33;;;8.50;99.90;;;;;;5043853;28;20577;-48
2023/03/20 08:46:53;;;;;;;6.40;4.67;;;8.50;99.90;;;;;;5031937;28;20248;-49
2023/03/20 08:49:20;;;;;;;8.27;4.73;;;8.50;99.90;;;;;;5042238;28;20594;-47
2023/03/20 08:51:47;;;;;;;6.27;4.27;;;8.60;99.90;;;;;;5035263;28;20199;-50
2023/03/20 08:54:17;;;;;;;6.47;5.27;;;8.60;99.90;;;;;;5050010;28;20214;-50
2023/03/20 08:56:45;;;;;;;6.50;4.13;;;8.70;99.90;;;;;;5042315;28;20704;-43
2023/03/20 08:59:12;;;;;;;8.77;4.30;;;8.70;99.90;;;;;;5056224;28;20242;-46
2023/03/20 09:01:39;;;;;;;6.60;4.23;;;8.70;99.90;;;;;;5029888;28;20207;-50
2023/03/20 09:04:07;;;;;;;8.23;4.07;;;8.70;99.90;;;;;;5048311;28;20203;-47
2023/03/20 09:06:36;;;;;;;6.83;4.30;;;8.70;99.90;;;;;;5038279;28;20226;-46
2023/03/20 09:09:03;;;;;;;7.43;4.07;;;8.80;99.90;;;;;;5045601;28;20294;-46
2023/03/20 09:11:32;;;;;;;3.83;3.50;;;8.80;99.90;;;;;;5046723;28;20207;-45
2023/03/20 09:13:59;;;;;;;5.80;3.90;;;8.80;99.90;;;;;;5039406;28;20218;-47
2023/03/20 09:16:25;;;;;;;8.43;4.63;;;8.80;99.90;;;;;;5042571;28;20595;-45
2023/03/20 09:18:52;;;;;;;7.90;4.50;;;8.90;99.90;;;;;;5050670;28;20225;-49
2023/03/20 09:21:19;;;;;;;5.47;4.30;;;8.90;99.90;;;;;;5043269;28;20585;-46
2023/03/20 09:23:46;;;;;;;4.60;3.87;;;9.00;99.90;;;;;;5041920;28;20957;-50
2023/03/20 09:26:13;;;;;;;10.13;4.23;;;9.00;99.90;;;;;;5042296;28;20230;-45
2023/03/20 09:28:41;;;;;;;5.83;4.33;;;9.00;99.90;;;;;;5047609;28;20810;-48
2023/03/20 09:31:07;;;;;;;8.07;4.60;;;9.00;99.90;;;;;;5053197;28;20200;-52
2023/03/20 09:33:34;;;;;;;10.83;5.67;;;9.00;99.90;;;;;;5038089;28;20194;-47
2023/03/20 09:36:01;;;;;;;6.63;3.83;;;9.00;99.90;;;;;;5057542;28;20309;-47
2023/03/20 09:38:27;;;;;;;8.03;3.63;;;9.00;99.90;;;;;;5046298;28;20215;-44
2023/03/20 09:40:57;;;;;;;6.33;4.17;;;9.00;99.90;;;;;;5051407;28;20204;-48
2023/03/20 09:43:42;;;;;;;9.57;3.93;;;9.00;99.90;;;;;;5040969;28;20333;-46
2023/03/20 09:46:24;;;;;;;5.53;4.00;;;9.00;99.90;;;;;;5050185;28;20229;-45
2023/03/20 09:48:58;;;;;;;6.13;4.30;;;9.00;99.90;;;;;;5036858;28;20203;-48
2023/03/20 09:51:32;;;;;;;8.63;4.30;;;9.00;99.90;;;;;;5034265;28;20356;-45
2023/03/20 09:54:04;;;;;;;6.63;4.87;;;9.10;99.90;;;;;;5042802;28;20298;-48
2023/03/20 09:56:31;;;;;;;8.47;4.83;;;9.10;99.90;;;;;;5039014;28;20269;-46
2023/03/20 09:59:00;;;;;;;6.43;4.57;;;9.00;99.90;;;;;;5049397;28;20269;-48
2023/03/20 10:01:33;;;;;;;5.97;4.93;;;9.10;99.90;;;;;;5046529;28;20198;-47
2023/03/20 10:04:04;;;;;;;7.03;4.73;;;9.10;99.90;;;;;;5033167;28;20207;-45
2023/03/20 10:06:31;;;;;;;7.03;4.63;;;9.20;99.90;;;;;;5045149;28;20238;-47
2023/03/20 10:08:57;;;;;;;4.80;4.10;;;9.20;99.90;;;;;;5043773;28;20367;-48
2023/03/20 10:11:50;;;;;;;10.47;5.17;;;9.20;99.90;;;;;;5042268;28;20203;-47
2023/03/20 10:14:24;;;;;;;9.80;5.70;;;9.20;99.90;;;;;;5038325;28;20203;-45
2023/03/20 10:17:29;;;;;;;8.77;5.20;;;9.10;99.90;;;;;;5031104;28;20699;-49
2023/03/20 10:19:58;;;;;;;6.50;5.33;;;9.20;99.90;;;;;;5030258;28;20764;-46
2023/03/20 10:22:31;;;;;;;8.47;5.37;;;9.10;99.90;;;;;;5038142;28;20214;-47
2023/03/20 10:25:04;;;;;;;8.93;5.27;;;9.20;99.90;;;;;;5047160;28;20210;-45
2023/03/20 10:27:34;;;;;;;8.97;5.07;;;9.20;99.90;;;;;;5038606;28;20218;-48
2023/03/20 10:30:21;;;;;;;11.90;6.10;;;9.30;99.90;;;;;;5051964;28;20202;-46
2023/03/20 10:32:57;;;;;;;7.87;6.00;;;9.30;99.90;;;;;;5045126;28;20202;-47
2023/03/20 10:35:32;;;;;;;8.43;6.30;;;9.30;99.90;;;;;;5033761;28;24331;-46
2023/03/20 10:38:15;;;;;;;10.03;5.83;;;9.30;99.90;;;;;;5052563;28;20237;-50
2023/03/20 10:40:43;;;;;;;10.83;5.43;;;9.30;99.90;;;;;;5045348;28;20214;-48
2023/03/20 10:43:16;;;;;;;7.13;5.40;;;9.20;99.90;;;;;;5042195;28;20219;-45
2023/03/20 10:45:46;;;;;;;8.60;5.70;;;9.20;99.90;;;;;;5045073;28;20231;-49
2023/03/20 10:48:20;;;;;;;8.10;5.80;;;9.20;99.90;;;;;;5042341;28;20217;-44
2023/03/20 10:50:51;;;;;;;6.13;5.10;;;9.20;99.90;;;;;;5048270;28;20626;-50
2023/03/20 10:53:31;;;;;;;11.97;6.33;;;9.20;99.90;;;;;;5036610;28;20203;-46
2023/03/20 10:56:02;;;;;;;7.60;5.83;;;9.20;99.90;;;;;;5049998;28;20692;-48
2023/03/20 10:58:33;;;;;;;9.73;6.10;;;9.20;99.90;;;;;;5039161;28;20280;-46
2023/03/20 11:01:01;;;;;;;9.57;6.30;;;9.20;99.90;;;;;;5036012;28;20282;-46
2023/03/20 11:03:31;;;;;;;8.90;5.87;;;9.30;99.90;;;;;;5046867;28;20210;-44
2023/03/20 11:06:01;;;;;;;9.77;6.63;;;9.30;99.90;;;;;;5042963;28;20966;-47
2023/03/20 11:08:34;;;;;;;9.73;5.80;;;9.30;99.90;;;;;;5038593;28;20226;-45
2023/03/20 11:11:03;;;;;;;9.70;5.30;;;9.30;99.90;;;;;;5050921;28;22056;-48
2023/03/20 11:13:33;;;;;;;9.47;5.27;;;9.30;99.90;;;;;;5043831;28;20203;-46
2023/03/20 11:16:16;;;;;;;8.07;5.90;;;9.40;99.90;;;;;;5041353;28;20219;-45
2023/03/20 11:18:48;;;;;;;9.00;5.90;;;9.50;99.90;;;;;;5036887;28;20230;-46
2023/03/20 11:21:18;;;;;;;7.87;5.70;;;9.50;99.90;;;;;;5045113;28;20206;-46
2023/03/20 11:23:45;;;;;;;8.43;5.70;;;9.50;99.90;;;;;;5031856;28;20217;-44
2023/03/20 11:26:16;;;;;;;8.73;5.80;;;9.50;99.90;;;;;;5046944;28;20302;-47
2023/03/20 11:28:47;;;;;;;8.77;5.10;;;9.50;99.90;;;;;;5040563;28;20279;-45
2023/03/20 11:31:20;;;;;;;8.57;6.47;;;9.60;99.90;;;;;;5041210;28;20215;-49
2023/03/20 11:34:00;;;;;;;8.87;5.50;;;9.60;99.90;;;;;;5045899;28;20191;-49
2023/03/20 11:36:29;;;;;;;8.17;5.30;;;9.60;99.90;;;;;;5053247;28;20279;-45
2023/03/20 11:39:05;;;;;;;15.30;6.43;;;9.60;99.90;;;;;;5033202;28;21894;-50
2023/03/20 11:41:32;;;;;;;7.97;5.17;;;9.60;99.90;;;;;;5049427;28;20203;-45
2023/03/20 11:43:59;;;;;;;6.60;5.07;;;9.60;99.90;;;;;;5049541;28;20203;-49
2023/03/20 11:46:26;;;;;;;8.87;5.83;;;9.60;99.90;;;;;;5042338;28;20226;-48
2023/03/20 11:49:18;;;;;;;6.37;5.30;;;9.60;99.90;;;;;;5042383;28;20361;-49
2023/03/20 11:51:45;;;;;;;6.00;4.87;;;9.60;99.90;;;;;;5036145;28;20195;-50
2023/03/20 11:54:17;;;;;;;8.67;4.77;;;9.60;99.90;;;;;;5037987;28;20218;-50
2023/03/20 11:56:53;;;;;;;6.07;4.77;;;9.50;99.90;;;;;;5037590;28;20866;-46
2023/03/20 11:59:21;;;;;;;7.33;4.87;;;9.50;99.90;;;;;;5044885;28;20219;-49
2023/03/20 12:01:51;;;;;;;5.47;4.37;;;9.50;99.90;;;;;;5039156;28;20202;-47
2023/03/20 12:04:27;;;;;;;7.50;4.47;;;9.60;99.90;;;;;;5046365;28;20612;-52
2023/03/20 12:07:00;;;;;;;10.43;5.80;;;9.60;99.90;;;;;;5046060;28;20287;-49
2023/03/20 12:09:38;;;;;;;5.53;4.63;;;9.70;99.90;;;;;;5032731;28;20226;-52
2023/03/20 12:12:13;;;;;;;5.87;4.53;;;9.70;99.90;;;;;;5050206;28;20573;-50
2023/03/20 12:14:47;;;;;;;7.67;4.60;;;9.80;99.90;;;;;;5051461;28;20205;-50
2023/03/20 12:17:35;;;;;;;11.10;5.93;;;9.80;99.90;;;;;;5046896;28;20230;-55
2023/03/20 12:20:12;;;;;;;6.37;4.47;;;9.80;99.90;;;;;;5052530;28;20267;-54
2023/03/20 12:22:46;;;;;;;7.30;4.93;;;9.80;99.90;;;;;;5040836;28;20205;-51
2023/03/20 12:25:21;;;;;;;7.40;4.80;;;9.80;99.90;;;;;;5041107;28;20209;-50
2023/03/20 12:27:56;;;;;;;7.73;4.30;;;9.70;99.90;;;;;;5046992;28;20194;-53
2023/03/20 12:30:32;;;;;;;5.57;4.80;;;9.80;99.90;;;;;;5047524;28;20214;-54
2023/03/20 12:33:04;;;;;;;9.27;4.40;;;9.80;99.90;;;;;;5038040;28;20276;-55
2023/03/20 12:35:36;;;;;;;8.97;4.57;;;9.90;99.90;;;;;;5047312;28;20297;-53
2023/03/20 12:38:03;;;;;;;6.70;4.57;;;9.90;99.90;;;;;;5044877;28;20294;-54
2023/03/20 12:40:40;;;;;;;8.37;5.10;;;10.00;99.90;;;;;;5032576;28;20234;-54
2023/03/20 12:43:14;;;;;;;7.50;5.13;;;10.00;99.90;;;;;;5039258;28;20290;-53
2023/03/20 12:45:47;;;;;;;6.77;4.63;;;10.10;99.90;;;;;;5048654;28;20232;-54
2023/03/20 12:48:37;;;;;;;7.10;4.13;;;10.30;99.90;;;;;;5045943;28;20202;-52
2023/03/20 12:51:14;;;;;;;6.70;4.80;;;10.40;99.90;;;;;;5051177;28;20218;-54
2023/03/20 12:53:52;;;;;;;5.77;5.13;;;10.60;99.90;;;;;;5050501;28;20199;-55
2023/03/20 12:56:34;;;;;;;5.87;5.17;;;10.70;99.90;;;;;;5039035;28;23254;-51
2023/03/20 12:59:08;;;;;;;7.07;5.17;;;10.90;99.90;;;;;;5055377;28;20356;-53
2023/03/20 13:01:45;;;;;;;5.67;4.80;;;10.90;99.90;;;;;;5039014;28;20268;-49
2023/03/20 13:04:34;;;;;;;6.70;5.13;;;10.90;99.90;;;;;;5043927;28;20285;-51
2023/03/20 13:07:06;;;;;;;6.23;4.97;;;10.80;99.90;;;;;;5048219;28;21051;-51
2023/03/20 13:09:52;;;;;;;7.00;5.13;;;10.80;99.90;;;;;;5055489;28;20214;-50
2023/03/20 13:12:31;;;;;;;9.60;4.80;;;10.80;99.90;;;;;;5043187;28;20949;-51
2023/03/20 13:15:12;;;;;;;8.37;5.10;;;10.80;99.90;;;;;;5047829;28;20378;-51
2023/03/20 13:18:03;;;;;;;6.27;4.33;;;10.80;99.90;;;;;;5050759;28;20217;-52
2023/03/20 13:20:33;;;;;;;5.07;4.50;;;10.70;99.90;;;;;;5044834;28;20857;-52
2023/03/20 13:23:09;;;;;;;7.23;4.03;;;10.70;99.90;;;;;;5046059;28;20206;-50